createdAt,value
2023-06-03T00:00:26.170Z,99984.94
2023-06-03T00:05:48.981Z,99986.20
2023-06-03T00:10:51.914Z,99990.61
2023-06-03T00:15:54.819Z,99989.67
2023-06-03T00:20:57.737Z,99989.33
2023-06-03T00:26:00.620Z,99990.13
2023-06-03T00:31:03.825Z,99996.23
2023-06-03T00:36:07.464Z,99998.79
2023-06-03T00:41:10.336Z,99998.93
2023-06-03T00:46:14.305Z,99998.52
2023-06-03T00:51:17.672Z,100001.43
2023-06-03T00:56:20.734Z,100002.48
2023-06-03T01:01:25.705Z,100008.66
2023-06-03T01:06:35.961Z,100012.23
2023-06-03T01:11:47.758Z,100010.63
2023-06-03T01:16:52.130Z,100013.93
2023-06-03T01:22:01.632Z,100015.80
2023-06-03T01:27:04.829Z,100014.21
2023-06-03T01:32:12.878Z,100013.48
2023-06-03T01:37:15.741Z,100012.80
2023-06-03T01:42:18.618Z,100017.71
2023-06-03T01:47:21.538Z,100022.05
2023-06-03T01:52:24.469Z,100028.06
2023-06-03T01:57:28.305Z,100039.16
2023-06-03T02:02:31.444Z,100040.79
2023-06-03T02:07:34.416Z,100044.83
2023-06-03T02:12:37.328Z,100046.77
2023-06-03T02:17:41.845Z,100049.60
2023-06-03T02:22:44.865Z,100053.08
2023-06-03T02:27:47.675Z,100055.85
2023-06-03T02:32:50.547Z,100064.39
2023-06-03T02:37:53.505Z,100072.30
2023-06-03T02:42:56.361Z,100073.90
2023-06-03T02:47:59.211Z,100076.23
2023-06-03T02:53:02.681Z,100081.66
2023-06-03T02:58:05.829Z,100088.67
2023-06-03T03:03:08.722Z,100089.34
2023-06-03T03:08:11.693Z,100093.46
2023-06-03T03:13:14.547Z,100095.35
2023-06-03T03:18:17.577Z,100095.64
2023-06-03T03:23:20.618Z,100103.66
2023-06-03T03:28:23.545Z,100104.75
2023-06-03T03:33:26.534Z,100110.40
2023-06-03T03:38:29.408Z,100108.48
2023-06-03T03:43:32.416Z,100119.95
2023-06-03T03:48:35.275Z,100121.41
2023-06-03T03:53:38.197Z,100123.16
2023-06-03T03:58:42.502Z,100124.09
2023-06-03T04:03:47.311Z,100137.23
2023-06-03T04:08:52.704Z,100139.14
2023-06-03T04:13:57.041Z,100145.84
2023-06-03T04:19:00.047Z,100148.52
2023-06-03T04:24:06.239Z,100159.58
2023-06-03T04:29:10.799Z,100156.94
2023-06-03T04:34:13.711Z,100160.34
2023-06-03T04:39:18.867Z,100159.66
2023-06-03T04:44:22.369Z,100162.74
2023-06-03T04:49:25.235Z,100168.23
2023-06-03T04:54:28.078Z,100168.27
2023-06-03T04:59:31.025Z,100175.03
2023-06-03T05:04:35.434Z,100180.91
2023-06-03T05:09:38.542Z,100185.11
2023-06-03T05:14:41.471Z,100190.10
2023-06-03T05:19:44.304Z,100196.79
2023-06-03T05:24:47.143Z,100197.71
2023-06-03T05:29:49.940Z,100201.77
2023-06-03T05:34:55.179Z,100203.73
2023-06-03T05:39:58.025Z,100209.98
2023-06-03T05:45:00.908Z,100207.84
2023-06-03T05:50:04.279Z,100207.84
2023-06-03T05:55:07.847Z,100213.16
2023-06-03T06:00:11.329Z,100216.22
2023-06-03T06:05:14.459Z,100216.64
2023-06-03T06:10:17.282Z,100220.34
2023-06-03T06:15:20.157Z,100222.99
2023-06-03T06:20:23.093Z,100221.75
2023-06-03T06:25:26.026Z,100224.90
2023-06-03T06:30:28.886Z,100222.94
2023-06-03T06:35:31.767Z,100225.65
2023-06-03T06:40:35.773Z,100227.78
2023-06-03T06:45:38.901Z,100227.58
2023-06-03T06:50:57.644Z,100224.40
2023-06-03T06:56:08.984Z,100225.77
2023-06-03T07:01:11.999Z,100226.95
2023-06-03T07:06:15.235Z,100232.59
2023-06-03T07:11:18.154Z,100229.40
2023-06-03T07:16:22.393Z,100238.88
2023-06-03T07:21:26.653Z,100235.52
2023-06-03T07:26:33.059Z,100235.71
2023-06-03T07:36:44.845Z,100235.96
2023-06-03T07:41:52.026Z,100235.31
2023-06-03T07:46:59.440Z,100239.23
2023-06-03T07:52:02.479Z,100232.39
2023-06-03T07:57:06.697Z,100240.22
2023-06-03T08:02:13.097Z,100245.92
2023-06-03T08:07:17.472Z,100243.17
2023-06-03T08:12:31.341Z,100243.55
2023-06-03T08:17:42.074Z,100240.94
2023-06-03T08:22:45.873Z,100239.42
2023-06-03T08:27:49.595Z,100240.29
2023-06-03T08:32:52.624Z,100241.65
2023-06-03T08:37:56.187Z,100240.92
2023-06-03T08:43:03.488Z,100241.66
2023-06-03T08:48:33.469Z,100245.42
2023-06-03T08:53:53.295Z,100251.86
2023-06-03T08:59:02.791Z,100253.31
2023-06-03T09:04:06.348Z,100253.91
2023-06-03T09:09:10.571Z,100251.95
2023-06-03T09:14:14.482Z,100254.36
2023-06-03T09:19:18.721Z,100251.56
2023-06-03T09:24:21.738Z,100250.33
2023-06-03T09:29:25.865Z,100249.47
2023-06-03T09:34:30.116Z,100246.41
2023-06-03T09:39:34.861Z,100247.91
2023-06-03T09:44:56.979Z,100251.27
2023-06-03T09:50:13.362Z,100247.05
2023-06-03T09:55:16.819Z,100241.98
2023-06-03T10:00:19.948Z,100243.98
2023-06-03T10:05:29.998Z,100241.48
2023-06-03T10:10:37.063Z,100242.70
2023-06-03T10:15:41.329Z,100243.26
2023-06-03T10:20:44.854Z,100238.63
2023-06-03T10:25:53.978Z,100241.10
2023-06-03T10:30:59.226Z,100239.25
2023-06-03T10:36:04.906Z,100233.63
2023-06-03T10:41:10.758Z,100229.38
2023-06-03T10:46:14.350Z,100230.37
2023-06-03T10:51:51.790Z,100223.23
2023-06-03T10:57:10.145Z,100219.09
2023-06-03T11:02:14.416Z,100216.04
2023-06-03T11:07:33.146Z,100213.98
2023-06-03T11:12:50.679Z,100213.77
2023-06-03T11:18:31.203Z,100213.42
2023-06-03T11:23:47.032Z,100213.00
2023-06-03T11:28:50.201Z,100215.98
2023-06-03T11:34:27.545Z,100212.09
2023-06-03T11:40:07.372Z,100210.21
2023-06-03T11:45:23.018Z,100202.89
2023-06-03T11:50:33.586Z,100204.21
2023-06-03T11:55:36.848Z,100203.38
2023-06-03T12:00:39.964Z,100197.25
2023-06-03T12:06:03.212Z,100191.96
2023-06-03T12:11:06.491Z,100188.45
2023-06-03T12:16:09.732Z,100179.40
2023-06-03T12:21:23.417Z,100166.44
2023-06-03T12:26:27.091Z,100163.38
2023-06-03T12:31:30.280Z,100155.56
2023-06-03T12:36:51.205Z,100151.34
2023-06-03T12:41:55.783Z,100154.39
2023-06-03T12:47:03.819Z,100147.59
2023-06-03T12:52:37.760Z,100143.80
2023-06-03T12:57:43.484Z,100134.48
2023-06-03T13:02:49.065Z,100130.98
2023-06-03T13:07:52.422Z,100129.73
2023-06-03T13:12:55.422Z,100125.39
2023-06-03T13:17:58.544Z,100119.75
2023-06-03T13:23:01.581Z,100120.54
2023-06-03T13:28:04.566Z,100120.23
2023-06-03T13:33:07.973Z,100117.02
2023-06-03T13:38:15.234Z,100117.19
2023-06-03T13:43:18.255Z,100116.58
2023-06-03T13:48:21.274Z,100123.82
2023-06-03T13:53:24.250Z,100122.42
2023-06-03T13:58:27.294Z,100119.14
2023-06-03T14:03:30.270Z,100108.98
2023-06-03T14:08:34.675Z,100103.70
2023-06-03T14:13:37.700Z,100103.48
2023-06-03T14:18:40.708Z,100103.80
2023-06-03T14:23:43.690Z,100103.26
2023-06-03T14:28:47.219Z,100105.34
2023-06-03T14:33:50.472Z,100100.02
2023-06-03T14:38:53.540Z,100097.95
2023-06-03T14:43:59.804Z,100095.56
2023-06-03T14:49:02.854Z,100091.58
2023-06-03T14:54:06.773Z,100083.40
2023-06-03T14:59:09.782Z,100080.73
2023-06-03T15:04:14.903Z,100075.98
2023-06-03T15:09:18.152Z,100074.18
2023-06-03T15:14:21.058Z,100073.15
2023-06-03T15:19:24.007Z,100073.39
2023-06-03T15:24:27.161Z,100067.20
2023-06-03T15:29:30.264Z,100066.89
2023-06-03T15:34:33.402Z,100064.31
2023-06-03T15:39:36.456Z,100061.30
2023-06-03T15:44:39.332Z,100058.52
2023-06-03T15:49:42.337Z,100053.08
2023-06-03T15:54:45.844Z,100052.91
2023-06-03T15:59:48.842Z,100055.20
2023-06-03T16:04:51.894Z,100052.75
2023-06-03T16:09:54.881Z,100054.80
2023-06-03T16:14:58.106Z,100054.24
2023-06-03T16:20:01.502Z,100055.39
2023-06-03T16:25:05.823Z,100054.73
2023-06-03T16:30:10.202Z,100050.13
2023-06-03T16:35:13.246Z,100049.54
2023-06-03T16:40:16.295Z,100046.23
2023-06-03T16:45:19.322Z,100043.96
2023-06-03T16:50:22.304Z,100042.73
2023-06-03T16:55:25.382Z,100039.39
2023-06-03T17:00:28.424Z,100031.86
2023-06-03T17:05:32.519Z,100029.93
2023-06-03T17:10:36.731Z,100031.98
2023-06-03T17:15:39.723Z,100031.84
2023-06-03T17:20:42.804Z,100029.47
2023-06-03T17:25:46.584Z,100031.27
2023-06-03T17:30:49.888Z,100028.84
2023-06-03T17:35:52.798Z,100031.41
2023-06-03T17:40:57.659Z,100034.83
2023-06-03T17:46:01.096Z,100036.23
2023-06-03T17:51:04.690Z,100037.31
2023-06-03T17:56:08.318Z,100037.79
2023-06-03T18:01:11.839Z,100037.60
2023-06-03T18:06:14.844Z,100033.27
2023-06-03T18:11:17.886Z,100030.17
2023-06-03T18:16:21.025Z,100033.46
2023-06-03T18:21:24.074Z,100033.45
2023-06-03T18:26:29.072Z,100037.73
2023-06-03T18:31:32.451Z,100038.91
2023-06-03T18:36:35.458Z,100039.42
2023-06-03T18:41:38.513Z,100042.30
2023-06-03T18:46:41.583Z,100047.41
2023-06-03T18:51:44.585Z,100051.30
2023-06-03T18:56:47.597Z,100052.39
2023-06-03T19:01:51.373Z,100048.96
2023-06-03T19:06:54.581Z,100048.59
2023-06-03T19:11:57.597Z,100054.89
2023-06-03T19:17:01.018Z,100057.86
2023-06-03T19:22:04.089Z,100064.06
2023-06-03T19:27:07.600Z,100070.66
2023-06-03T19:32:10.572Z,100071.48
2023-06-03T19:37:13.596Z,100073.88
2023-06-03T19:42:16.642Z,100075.29
2023-06-03T19:47:19.598Z,100080.43
2023-06-03T19:52:22.613Z,100088.95
2023-06-03T19:57:25.697Z,100096.45
2023-06-03T20:02:28.741Z,100102.95
2023-06-03T20:07:35.515Z,100108.39
2023-06-03T20:12:38.501Z,100110.60
2023-06-03T20:17:41.593Z,100112.20
2023-06-03T20:22:44.920Z,100107.05
2023-06-03T20:27:50.497Z,100106.44
2023-06-03T20:32:58.261Z,100107.69
2023-06-03T20:38:04.571Z,100105.44
2023-06-03T20:43:07.609Z,100105.02
2023-06-03T20:48:11.126Z,100110.57
2023-06-03T20:53:14.133Z,100117.45
2023-06-03T20:58:17.461Z,100122.30
2023-06-03T21:03:20.812Z,100126.89
2023-06-03T21:08:23.804Z,100132.84
2023-06-03T21:13:27.545Z,100132.16
2023-06-03T21:18:30.615Z,100137.48
2023-06-03T21:23:33.623Z,100138.78
2023-06-03T21:28:36.825Z,100139.44
2023-06-03T21:33:39.891Z,100140.07
2023-06-03T21:38:42.892Z,100143.61
2023-06-03T21:43:45.895Z,100146.41
2023-06-03T21:48:49.232Z,100145.40
2023-06-03T21:53:53.667Z,100144.01
2023-06-03T21:58:56.655Z,100147.61
2023-06-03T22:03:59.809Z,100144.80
2023-06-03T22:09:03.049Z,100145.90
2023-06-03T22:14:06.359Z,100141.22
2023-06-03T22:19:09.473Z,100141.67
2023-06-03T22:24:12.668Z,100139.04
2023-06-03T22:29:15.721Z,100139.66
2023-06-03T22:34:18.696Z,100137.40
2023-06-03T22:39:21.752Z,100131.78
2023-06-03T22:44:24.946Z,100125.86
2023-06-03T22:49:27.930Z,100120.45
2023-06-03T22:54:31.044Z,100121.88
2023-06-03T22:59:34.053Z,100117.79
2023-06-03T23:04:37.058Z,100117.14
2023-06-03T23:09:40.193Z,100120.50
2023-06-03T23:14:43.202Z,100119.05
2023-06-03T23:19:46.230Z,100110.83
2023-06-03T23:24:49.259Z,100108.77
2023-06-03T23:29:52.252Z,100113.06
2023-06-03T23:34:55.235Z,100108.52
2023-06-03T23:39:58.548Z,100110.75
2023-06-03T23:45:02.767Z,100114.70
2023-06-03T23:50:06.943Z,100110.28
2023-06-03T23:55:10.191Z,100109.63
